sensor_id;sensor_type;location;lat;lon;timestamp;P1;durP1;ratioP1;P2;durP2;ratioP2
21424;SDS011;10873;51.132;16.848;2022-08-19T00:01:10;17.25;;;8.40;;
21424;SDS011;10873;51.132;16.848;2022-08-19T00:03:36;10.80;;;7.95;;
21424;SDS011;10873;51.132;16.848;2022-08-19T00:06:02;10.13;;;8.07;;
21424;SDS011;10873;51.132;16.848;2022-08-19T00:08:28;10.63;;;7.68;;
21424;SDS011;10873;51.132;16.848;2022-08-19T00:10:56;11.07;;;7.90;;
21424;SDS011;10873;51.132;16.848;2022-08-19T00:13:22;11.52;;;7.88;;
21424;SDS011;10873;51.132;16.848;2022-08-19T00:15:48;10.82;;;8.20;;
21424;SDS011;10873;51.132;16.848;2022-08-19T00:18:14;10.82;;;8.15;;
21424;SDS011;10873;51.132;16.848;2022-08-19T00:20:40;12.07;;;7.50;;
21424;SDS011;10873;51.132;16.848;2022-08-19T00:23:07;10.85;;;8.18;;
21424;SDS011;10873;51.132;16.848;2022-08-19T00:25:33;13.15;;;7.35;;
21424;SDS011;10873;51.132;16.848;2022-08-19T00:28:00;11.45;;;8.10;;
21424;SDS011;10873;51.132;16.848;2022-08-19T00:30:27;10.15;;;7.50;;
21424;SDS011;10873;51.132;16.848;2022-08-19T00:32:53;11.43;;;7.07;;
21424;SDS011;10873;51.132;16.848;2022-08-19T00:35:20;11.45;;;8.30;;
21424;SDS011;10873;51.132;16.848;2022-08-19T00:37:47;12.23;;;7.10;;
21424;SDS011;10873;51.132;16.848;2022-08-19T00:40:13;14.15;;;7.93;;
21424;SDS011;10873;51.132;16.848;2022-08-19T00:42:40;11.38;;;7.68;;
21424;SDS011;10873;51.132;16.848;2022-08-19T00:45:14;11.55;;;7.38;;
21424;SDS011;10873;51.132;16.848;2022-08-19T00:47:45;14.60;;;7.55;;
21424;SDS011;10873;51.132;16.848;2022-08-19T00:50:13;8.13;;;7.32;;
21424;SDS011;10873;51.132;16.848;2022-08-19T00:52:42;10.38;;;7.28;;
21424;SDS011;10873;51.132;16.848;2022-08-19T00:55:13;10.68;;;7.50;;
21424;SDS011;10873;51.132;16.848;2022-08-19T00:57:46;13.48;;;7.75;;
21424;SDS011;10873;51.132;16.848;2022-08-19T01:00:17;16.48;;;8.00;;
21424;SDS011;10873;51.132;16.848;2022-08-19T01:02:45;10.02;;;7.18;;
21424;SDS011;10873;51.132;16.848;2022-08-19T01:05:11;9.55;;;8.10;;
21424;SDS011;10873;51.132;16.848;2022-08-19T01:07:50;9.95;;;7.55;;
21424;SDS011;10873;51.132;16.848;2022-08-19T01:10:17;10.05;;;7.22;;
21424;SDS011;10873;51.132;16.848;2022-08-19T01:12:47;11.90;;;8.32;;
21424;SDS011;10873;51.132;16.848;2022-08-19T01:15:16;8.63;;;7.65;;
21424;SDS011;10873;51.132;16.848;2022-08-19T01:17:50;9.93;;;7.90;;
21424;SDS011;10873;51.132;16.848;2022-08-19T01:20:21;8.95;;;7.40;;
21424;SDS011;10873;51.132;16.848;2022-08-19T01:22:51;11.35;;;7.30;;
21424;SDS011;10873;51.132;16.848;2022-08-19T01:25:24;10.93;;;7.30;;
21424;SDS011;10873;51.132;16.848;2022-08-19T01:27:53;10.32;;;7.50;;
21424;SDS011;10873;51.132;16.848;2022-08-19T01:30:23;11.18;;;7.55;;
21424;SDS011;10873;51.132;16.848;2022-08-19T01:32:51;9.82;;;7.75;;
21424;SDS011;10873;51.132;16.848;2022-08-19T01:35:18;10.00;;;7.57;;
21424;SDS011;10873;51.132;16.848;2022-08-19T01:37:47;16.98;;;8.20;;
21424;SDS011;10873;51.132;16.848;2022-08-19T01:40:17;8.98;;;7.40;;
21424;SDS011;10873;51.132;16.848;2022-08-19T01:42:45;10.73;;;7.95;;
21424;SDS011;10873;51.132;16.848;2022-08-19T01:45:12;9.95;;;7.63;;
21424;SDS011;10873;51.132;16.848;2022-08-19T01:47:39;10.80;;;8.18;;
21424;SDS011;10873;51.132;16.848;2022-08-19T01:50:05;11.80;;;7.72;;
21424;SDS011;10873;51.132;16.848;2022-08-19T01:52:34;11.45;;;7.40;;
21424;SDS011;10873;51.132;16.848;2022-08-19T01:55:02;7.97;;;7.18;;
21424;SDS011;10873;51.132;16.848;2022-08-19T01:57:29;11.18;;;7.93;;
21424;SDS011;10873;51.132;16.848;2022-08-19T01:59:55;9.35;;;7.10;;
21424;SDS011;10873;51.132;16.848;2022-08-19T02:02:22;12.35;;;7.38;;
21424;SDS011;10873;51.132;16.848;2022-08-19T02:04:48;10.95;;;7.15;;
21424;SDS011;10873;51.132;16.848;2022-08-19T02:07:14;12.38;;;7.68;;
21424;SDS011;10873;51.132;16.848;2022-08-19T02:09:40;10.35;;;7.68;;
21424;SDS011;10873;51.132;16.848;2022-08-19T02:12:08;13.65;;;7.70;;
21424;SDS011;10873;51.132;16.848;2022-08-19T02:14:35;9.02;;;7.85;;
21424;SDS011;10873;51.132;16.848;2022-08-19T02:17:02;8.63;;;7.40;;
21424;SDS011;10873;51.132;16.848;2022-08-19T02:19:28;11.63;;;7.53;;
21424;SDS011;10873;51.132;16.848;2022-08-19T02:21:57;11.65;;;8.10;;
21424;SDS011;10873;51.132;16.848;2022-08-19T02:24:23;10.43;;;7.25;;
21424;SDS011;10873;51.132;16.848;2022-08-19T02:26:49;10.30;;;7.68;;
21424;SDS011;10873;51.132;16.848;2022-08-19T02:29:18;14.77;;;7.72;;
21424;SDS011;10873;51.132;16.848;2022-08-19T02:31:44;10.80;;;7.78;;
21424;SDS011;10873;51.132;16.848;2022-08-19T02:34:10;8.90;;;7.65;;
21424;SDS011;10873;51.132;16.848;2022-08-19T02:36:36;9.70;;;7.63;;
21424;SDS011;10873;51.132;16.848;2022-08-19T02:39:02;11.57;;;7.90;;
21424;SDS011;10873;51.132;16.848;2022-08-19T02:41:29;8.43;;;7.32;;
21424;SDS011;10873;51.132;16.848;2022-08-19T02:43:57;13.55;;;7.63;;
21424;SDS011;10873;51.132;16.848;2022-08-19T02:46:28;9.55;;;7.53;;
21424;SDS011;10873;51.132;16.848;2022-08-19T02:48:56;12.02;;;7.82;;
21424;SDS011;10873;51.132;16.848;2022-08-19T02:51:25;10.00;;;7.80;;
21424;SDS011;10873;51.132;16.848;2022-08-19T02:53:53;10.85;;;7.70;;
21424;SDS011;10873;51.132;16.848;2022-08-19T02:56:20;12.88;;;7.40;;
21424;SDS011;10873;51.132;16.848;2022-08-19T02:58:47;9.55;;;8.43;;
21424;SDS011;10873;51.132;16.848;2022-08-19T03:01:19;14.85;;;7.80;;
21424;SDS011;10873;51.132;16.848;2022-08-19T03:03:48;8.93;;;7.75;;
21424;SDS011;10873;51.132;16.848;2022-08-19T03:06:16;10.23;;;8.18;;
21424;SDS011;10873;51.132;16.848;2022-08-19T03:08:43;13.18;;;7.82;;
21424;SDS011;10873;51.132;16.848;2022-08-19T03:11:14;13.05;;;8.05;;
21424;SDS011;10873;51.132;16.848;2022-08-19T03:13:41;12.15;;;8.20;;
21424;SDS011;10873;51.132;16.848;2022-08-19T03:16:08;11.55;;;7.80;;
21424;SDS011;10873;51.132;16.848;2022-08-19T03:18:35;17.92;;;8.50;;
21424;SDS011;10873;51.132;16.848;2022-08-19T03:21:03;11.45;;;7.97;;
21424;SDS011;10873;51.132;16.848;2022-08-19T03:23:29;11.77;;;8.15;;
21424;SDS011;10873;51.132;16.848;2022-08-19T03:25:56;9.52;;;8.05;;
21424;SDS011;10873;51.132;16.848;2022-08-19T03:28:22;12.77;;;8.25;;
21424;SDS011;10873;51.132;16.848;2022-08-19T03:30:54;10.15;;;7.93;;
21424;SDS011;10873;51.132;16.848;2022-08-19T03:33:23;10.95;;;7.50;;
21424;SDS011;10873;51.132;16.848;2022-08-19T03:35:58;14.70;;;7.93;;
21424;SDS011;10873;51.132;16.848;2022-08-19T03:38:27;11.27;;;8.15;;
21424;SDS011;10873;51.132;16.848;2022-08-19T03:40:53;10.57;;;7.80;;
21424;SDS011;10873;51.132;16.848;2022-08-19T03:43:19;12.35;;;8.25;;
21424;SDS011;10873;51.132;16.848;2022-08-19T03:45:46;17.83;;;8.88;;
21424;SDS011;10873;51.132;16.848;2022-08-19T03:48:14;13.68;;;8.15;;
21424;SDS011;10873;51.132;16.848;2022-08-19T03:50:41;10.75;;;8.07;;
21424;SDS011;10873;51.132;16.848;2022-08-19T03:53:08;10.43;;;8.23;;
21424;SDS011;10873;51.132;16.848;2022-08-19T03:55:38;11.48;;;8.88;;
21424;SDS011;10873;51.132;16.848;2022-08-19T03:58:05;16.10;;;9.13;;
21424;SDS011;10873;51.132;16.848;2022-08-19T04:00:31;12.60;;;8.90;;
21424;SDS011;10873;51.132;16.848;2022-08-19T04:02:58;16.65;;;8.65;;
21424;SDS011;10873;51.132;16.848;2022-08-19T04:05:26;12.25;;;8.75;;
21424;SDS011;10873;51.132;16.848;2022-08-19T04:07:53;11.43;;;9.07;;
21424;SDS011;10873;51.132;16.848;2022-08-19T04:10:23;17.08;;;8.30;;
21424;SDS011;10873;51.132;16.848;2022-08-19T04:12:51;11.70;;;8.05;;
21424;SDS011;10873;51.132;16.848;2022-08-19T04:15:17;13.48;;;8.75;;
21424;SDS011;10873;51.132;16.848;2022-08-19T04:17:44;13.93;;;8.73;;
21424;SDS011;10873;51.132;16.848;2022-08-19T04:20:10;14.65;;;9.32;;
21424;SDS011;10873;51.132;16.848;2022-08-19T04:22:36;13.35;;;8.73;;
21424;SDS011;10873;51.132;16.848;2022-08-19T04:25:02;15.45;;;8.38;;
21424;SDS011;10873;51.132;16.848;2022-08-19T04:27:29;14.32;;;8.55;;
21424;SDS011;10873;51.132;16.848;2022-08-19T04:29:58;17.50;;;8.82;;
21424;SDS011;10873;51.132;16.848;2022-08-19T04:32:24;13.52;;;8.95;;
21424;SDS011;10873;51.132;16.848;2022-08-19T04:34:50;17.50;;;9.27;;
21424;SDS011;10873;51.132;16.848;2022-08-19T04:37:16;14.32;;;9.27;;
21424;SDS011;10873;51.132;16.848;2022-08-19T04:39:42;12.25;;;9.02;;
21424;SDS011;10873;51.132;16.848;2022-08-19T04:42:27;12.98;;;9.00;;
21424;SDS011;10873;51.132;16.848;2022-08-19T04:45:14;12.82;;;8.40;;
21424;SDS011;10873;51.132;16.848;2022-08-19T04:47:41;13.57;;;9.70;;
21424;SDS011;10873;51.132;16.848;2022-08-19T04:50:09;15.85;;;9.45;;
21424;SDS011;10873;51.132;16.848;2022-08-19T04:52:36;11.70;;;9.05;;
21424;SDS011;10873;51.132;16.848;2022-08-19T04:55:03;17.15;;;8.80;;
21424;SDS011;10873;51.132;16.848;2022-08-19T04:57:31;16.83;;;8.75;;
21424;SDS011;10873;51.132;16.848;2022-08-19T04:59:58;12.77;;;8.93;;
21424;SDS011;10873;51.132;16.848;2022-08-19T05:02:25;13.95;;;8.82;;
21424;SDS011;10873;51.132;16.848;2022-08-19T05:04:56;16.55;;;9.27;;
21424;SDS011;10873;51.132;16.848;2022-08-19T05:07:22;19.80;;;9.02;;
21424;SDS011;10873;51.132;16.848;2022-08-19T05:09:48;14.02;;;9.13;;
21424;SDS011;10873;51.132;16.848;2022-08-19T05:12:14;17.00;;;9.00;;
21424;SDS011;10873;51.132;16.848;2022-08-19T05:14:40;16.15;;;9.25;;
21424;SDS011;10873;51.132;16.848;2022-08-19T05:17:07;19.45;;;9.60;;
21424;SDS011;10873;51.132;16.848;2022-08-19T05:19:34;17.38;;;10.32;;
21424;SDS011;10873;51.132;16.848;2022-08-19T05:22:19;12.10;;;9.10;;
21424;SDS011;10873;51.132;16.848;2022-08-19T05:24:58;19.52;;;9.52;;
21424;SDS011;10873;51.132;16.848;2022-08-19T05:27:26;18.45;;;9.80;;
21424;SDS011;10873;51.132;16.848;2022-08-19T05:29:51;14.80;;;9.55;;
21424;SDS011;10873;51.132;16.848;2022-08-19T05:32:18;12.05;;;10.13;;
21424;SDS011;10873;51.132;16.848;2022-08-19T05:34:46;12.38;;;9.38;;
21424;SDS011;10873;51.132;16.848;2022-08-19T05:37:12;15.23;;;9.80;;
21424;SDS011;10873;51.132;16.848;2022-08-19T05:39:38;17.30;;;9.88;;
21424;SDS011;10873;51.132;16.848;2022-08-19T05:42:06;12.88;;;9.60;;
21424;SDS011;10873;51.132;16.848;2022-08-19T05:44:35;15.40;;;10.27;;
21424;SDS011;10873;51.132;16.848;2022-08-19T05:47:04;14.63;;;9.77;;
21424;SDS011;10873;51.132;16.848;2022-08-19T05:49:31;16.67;;;9.95;;
21424;SDS011;10873;51.132;16.848;2022-08-19T05:51:59;15.35;;;9.98;;
21424;SDS011;10873;51.132;16.848;2022-08-19T05:54:28;20.00;;;10.60;;
21424;SDS011;10873;51.132;16.848;2022-08-19T05:56:55;19.02;;;10.48;;
21424;SDS011;10873;51.132;16.848;2022-08-19T05:59:21;18.98;;;10.05;;
21424;SDS011;10873;51.132;16.848;2022-08-19T06:01:48;16.70;;;9.85;;
21424;SDS011;10873;51.132;16.848;2022-08-19T06:06:57;16.23;;;10.00;;
21424;SDS011;10873;51.132;16.848;2022-08-19T06:12:22;14.27;;;9.70;;
21424;SDS011;10873;51.132;16.848;2022-08-19T06:20:05;16.08;;;9.98;;
21424;SDS011;10873;51.132;16.848;2022-08-19T06:33:09;19.25;;;9.93;;
21424;SDS011;10873;51.132;16.848;2022-08-19T06:35:38;15.15;;;9.38;;
21424;SDS011;10873;51.132;16.848;2022-08-19T06:38:04;11.52;;;9.27;;
21424;SDS011;10873;51.132;16.848;2022-08-19T06:40:30;11.82;;;9.27;;
21424;SDS011;10873;51.132;16.848;2022-08-19T06:42:56;11.48;;;9.30;;
21424;SDS011;10873;51.132;16.848;2022-08-19T06:45:25;15.02;;;9.45;;
21424;SDS011;10873;51.132;16.848;2022-08-19T06:47:51;12.55;;;9.23;;
21424;SDS011;10873;51.132;16.848;2022-08-19T06:50:21;15.80;;;9.57;;
21424;SDS011;10873;51.132;16.848;2022-08-19T06:52:47;14.00;;;9.43;;
21424;SDS011;10873;51.132;16.848;2022-08-19T06:55:14;13.63;;;9.52;;
21424;SDS011;10873;51.132;16.848;2022-08-19T06:57:41;11.65;;;9.25;;
21424;SDS011;10873;51.132;16.848;2022-08-19T07:00:08;15.77;;;9.40;;
21424;SDS011;10873;51.132;16.848;2022-08-19T07:02:41;15.68;;;9.43;;
21424;SDS011;10873;51.132;16.848;2022-08-19T07:05:07;17.13;;;9.60;;
21424;SDS011;10873;51.132;16.848;2022-08-19T07:07:35;12.85;;;9.00;;
21424;SDS011;10873;51.132;16.848;2022-08-19T07:10:03;12.95;;;9.35;;
21424;SDS011;10873;51.132;16.848;2022-08-19T07:12:30;14.35;;;9.07;;
21424;SDS011;10873;51.132;16.848;2022-08-19T07:15:00;10.43;;;8.80;;
21424;SDS011;10873;51.132;16.848;2022-08-19T07:17:26;15.13;;;9.48;;
21424;SDS011;10873;51.132;16.848;2022-08-19T07:19:52;12.57;;;9.30;;
21424;SDS011;10873;51.132;16.848;2022-08-19T07:22:19;12.73;;;9.40;;
21424;SDS011;10873;51.132;16.848;2022-08-19T07:24:49;10.80;;;8.80;;
21424;SDS011;10873;51.132;16.848;2022-08-19T07:27:15;12.68;;;8.85;;
21424;SDS011;10873;51.132;16.848;2022-08-19T07:29:42;11.82;;;8.65;;
21424;SDS011;10873;51.132;16.848;2022-08-19T07:32:08;11.50;;;8.93;;
21424;SDS011;10873;51.132;16.848;2022-08-19T07:34:34;13.52;;;9.25;;
21424;SDS011;10873;51.132;16.848;2022-08-19T07:37:03;12.32;;;9.45;;
21424;SDS011;10873;51.132;16.848;2022-08-19T07:39:30;11.00;;;9.50;;
21424;SDS011;10873;51.132;16.848;2022-08-19T07:42:00;11.25;;;9.13;;
21424;SDS011;10873;51.132;16.848;2022-08-19T07:44:29;15.02;;;9.52;;
21424;SDS011;10873;51.132;16.848;2022-08-19T07:46:56;10.57;;;9.13;;
21424;SDS011;10873;51.132;16.848;2022-08-19T07:49:23;11.38;;;9.43;;
21424;SDS011;10873;51.132;16.848;2022-08-19T07:51:50;13.13;;;10.02;;
21424;SDS011;10873;51.132;16.848;2022-08-19T07:54:22;11.02;;;9.70;;
21424;SDS011;10873;51.132;16.848;2022-08-19T07:56:49;12.02;;;9.95;;
21424;SDS011;10873;51.132;16.848;2022-08-19T07:59:17;12.82;;;9.75;;
21424;SDS011;10873;51.132;16.848;2022-08-19T08:01:44;11.65;;;10.45;;
21424;SDS011;10873;51.132;16.848;2022-08-19T08:04:10;12.18;;;9.68;;
21424;SDS011;10873;51.132;16.848;2022-08-19T08:06:55;11.77;;;9.10;;
21424;SDS011;10873;51.132;16.848;2022-08-19T08:09:41;10.80;;;9.43;;
21424;SDS011;10873;51.132;16.848;2022-08-19T08:12:09;12.63;;;10.80;;
21424;SDS011;10873;51.132;16.848;2022-08-19T08:14:40;12.07;;;10.00;;
21424;SDS011;10873;51.132;16.848;2022-08-19T08:17:09;11.02;;;9.70;;
21424;SDS011;10873;51.132;16.848;2022-08-19T08:19:35;13.07;;;10.35;;
21424;SDS011;10873;51.132;16.848;2022-08-19T08:22:02;13.40;;;10.30;;
21424;SDS011;10873;51.132;16.848;2022-08-19T08:24:31;11.18;;;9.98;;
21424;SDS011;10873;51.132;16.848;2022-08-19T08:26:59;11.65;;;9.98;;
21424;SDS011;10873;51.132;16.848;2022-08-19T08:29:27;10.38;;;9.32;;
21424;SDS011;10873;51.132;16.848;2022-08-19T08:31:57;11.70;;;10.48;;
21424;SDS011;10873;51.132;16.848;2022-08-19T08:34:23;11.77;;;9.88;;
21424;SDS011;10873;51.132;16.848;2022-08-19T08:36:49;12.07;;;10.15;;
21424;SDS011;10873;51.132;16.848;2022-08-19T08:39:18;14.23;;;10.60;;
21424;SDS011;10873;51.132;16.848;2022-08-19T08:41:49;10.65;;;9.55;;
21424;SDS011;10873;51.132;16.848;2022-08-19T08:44:20;11.77;;;9.73;;
21424;SDS011;10873;51.132;16.848;2022-08-19T08:46:49;11.25;;;10.07;;
21424;SDS011;10873;51.132;16.848;2022-08-19T08:49:23;12.10;;;9.82;;
21424;SDS011;10873;51.132;16.848;2022-08-19T08:51:57;11.85;;;10.40;;
21424;SDS011;10873;51.132;16.848;2022-08-19T08:54:28;11.52;;;9.57;;
21424;SDS011;10873;51.132;16.848;2022-08-19T08:56:58;11.48;;;10.00;;
21424;SDS011;10873;51.132;16.848;2022-08-19T08:59:26;11.50;;;9.52;;
21424;SDS011;10873;51.132;16.848;2022-08-19T09:01:57;12.88;;;9.32;;
21424;SDS011;10873;51.132;16.848;2022-08-19T09:04:25;10.88;;;9.55;;
21424;SDS011;10873;51.132;16.848;2022-08-19T09:06:54;12.40;;;9.32;;
21424;SDS011;10873;51.132;16.848;2022-08-19T09:09:30;13.40;;;9.30;;
21424;SDS011;10873;51.132;16.848;2022-08-19T09:12:03;10.48;;;9.38;;
21424;SDS011;10873;51.132;16.848;2022-08-19T09:14:39;11.63;;;10.38;;
21424;SDS011;10873;51.132;16.848;2022-08-19T09:17:12;13.73;;;10.48;;
21424;SDS011;10873;51.132;16.848;2022-08-19T09:19:48;13.35;;;10.45;;
21424;SDS011;10873;51.132;16.848;2022-08-19T09:22:18;13.23;;;9.98;;
21424;SDS011;10873;51.132;16.848;2022-08-19T09:24:48;12.07;;;10.85;;
21424;SDS011;10873;51.132;16.848;2022-08-19T09:27:15;13.55;;;10.27;;
21424;SDS011;10873;51.132;16.848;2022-08-19T09:29:41;12.80;;;9.65;;
21424;SDS011;10873;51.132;16.848;2022-08-19T09:32:08;13.05;;;10.35;;
21424;SDS011;10873;51.132;16.848;2022-08-19T09:34:34;11.00;;;9.90;;
21424;SDS011;10873;51.132;16.848;2022-08-19T09:37:01;10.80;;;9.65;;
21424;SDS011;10873;51.132;16.848;2022-08-19T09:39:28;11.30;;;10.10;;
21424;SDS011;10873;51.132;16.848;2022-08-19T09:41:55;12.70;;;9.98;;
21424;SDS011;10873;51.132;16.848;2022-08-19T09:44:22;13.57;;;10.13;;
21424;SDS011;10873;51.132;16.848;2022-08-19T09:46:48;11.63;;;9.88;;
21424;SDS011;10873;51.132;16.848;2022-08-19T09:49:16;10.20;;;9.13;;
21424;SDS011;10873;51.132;16.848;2022-08-19T09:51:49;16.75;;;9.93;;
21424;SDS011;10873;51.132;16.848;2022-08-19T09:54:17;10.82;;;9.73;;
21424;SDS011;10873;51.132;16.848;2022-08-19T09:56:44;15.63;;;10.23;;
21424;SDS011;10873;51.132;16.848;2022-08-19T09:59:10;10.32;;;9.30;;
21424;SDS011;10873;51.132;16.848;2022-08-19T10:01:37;13.55;;;9.55;;
21424;SDS011;10873;51.132;16.848;2022-08-19T10:04:03;10.90;;;9.80;;
21424;SDS011;10873;51.132;16.848;2022-08-19T10:06:34;10.77;;;9.48;;
21424;SDS011;10873;51.132;16.848;2022-08-19T10:09:03;10.48;;;9.48;;
21424;SDS011;10873;51.132;16.848;2022-08-19T10:11:33;11.05;;;9.95;;
21424;SDS011;10873;51.132;16.848;2022-08-19T10:14:00;14.52;;;9.85;;
21424;SDS011;10873;51.132;16.848;2022-08-19T10:16:27;12.18;;;10.48;;
21424;SDS011;10873;51.132;16.848;2022-08-19T10:18:53;12.20;;;10.90;;
21424;SDS011;10873;51.132;16.848;2022-08-19T10:21:21;11.10;;;10.00;;
21424;SDS011;10873;51.132;16.848;2022-08-19T10:23:49;19.35;;;15.07;;
21424;SDS011;10873;51.132;16.848;2022-08-19T10:26:17;46.70;;;29.67;;
21424;SDS011;10873;51.132;16.848;2022-08-19T10:28:46;28.60;;;20.35;;
21424;SDS011;10873;51.132;16.848;2022-08-19T10:31:13;33.38;;;21.52;;
21424;SDS011;10873;51.132;16.848;2022-08-19T10:33:43;26.35;;;20.30;;
21424;SDS011;10873;51.132;16.848;2022-08-19T10:36:10;31.77;;;23.52;;
21424;SDS011;10873;51.132;16.848;2022-08-19T10:38:42;31.10;;;21.17;;
21424;SDS011;10873;51.132;16.848;2022-08-19T10:41:12;28.83;;;21.08;;
21424;SDS011;10873;51.132;16.848;2022-08-19T10:43:40;29.83;;;19.75;;
21424;SDS011;10873;51.132;16.848;2022-08-19T10:46:10;28.55;;;19.90;;
21424;SDS011;10873;51.132;16.848;2022-08-19T10:48:37;26.42;;;19.08;;
21424;SDS011;10873;51.132;16.848;2022-08-19T10:51:03;28.05;;;18.95;;
21424;SDS011;10873;51.132;16.848;2022-08-19T10:53:49;26.75;;;17.85;;
21424;SDS011;10873;51.132;16.848;2022-08-19T10:56:15;25.75;;;17.05;;
21424;SDS011;10873;51.132;16.848;2022-08-19T10:59:01;21.40;;;15.95;;
21424;SDS011;10873;51.132;16.848;2022-08-19T11:01:30;21.85;;;16.17;;
21424;SDS011;10873;51.132;16.848;2022-08-19T11:03:59;19.30;;;14.75;;
21424;SDS011;10873;51.132;16.848;2022-08-19T11:06:25;20.48;;;15.00;;
21424;SDS011;10873;51.132;16.848;2022-08-19T11:08:51;19.15;;;14.52;;
21424;SDS011;10873;51.132;16.848;2022-08-19T11:11:18;20.55;;;14.00;;
21424;SDS011;10873;51.132;16.848;2022-08-19T11:13:44;17.98;;;14.30;;
21424;SDS011;10873;51.132;16.848;2022-08-19T11:16:11;19.83;;;13.90;;
21424;SDS011;10873;51.132;16.848;2022-08-19T11:18:42;16.83;;;13.40;;
21424;SDS011;10873;51.132;16.848;2022-08-19T11:21:11;19.30;;;13.88;;
21424;SDS011;10873;51.132;16.848;2022-08-19T11:23:40;17.88;;;14.27;;
21424;SDS011;10873;51.132;16.848;2022-08-19T11:26:06;16.85;;;14.43;;
21424;SDS011;10873;51.132;16.848;2022-08-19T11:28:32;16.17;;;12.57;;
21424;SDS011;10873;51.132;16.848;2022-08-19T11:30:58;16.45;;;14.07;;
21424;SDS011;10873;51.132;16.848;2022-08-19T11:33:24;16.58;;;13.65;;
21424;SDS011;10873;51.132;16.848;2022-08-19T11:35:53;17.55;;;13.80;;
21424;SDS011;10873;51.132;16.848;2022-08-19T11:38:19;16.55;;;13.50;;
21424;SDS011;10873;51.132;16.848;2022-08-19T11:40:45;16.85;;;14.45;;
21424;SDS011;10873;51.132;16.848;2022-08-19T11:43:20;16.25;;;14.05;;
21424;SDS011;10873;51.132;16.848;2022-08-19T11:45:46;19.35;;;14.25;;
21424;SDS011;10873;51.132;16.848;2022-08-19T11:48:13;17.42;;;14.25;;
21424;SDS011;10873;51.132;16.848;2022-08-19T11:50:40;16.05;;;14.00;;
21424;SDS011;10873;51.132;16.848;2022-08-19T11:53:08;16.77;;;13.88;;
21424;SDS011;10873;51.132;16.848;2022-08-19T11:55:36;16.80;;;13.55;;
21424;SDS011;10873;51.132;16.848;2022-08-19T11:58:04;14.20;;;12.70;;
21424;SDS011;10873;51.132;16.848;2022-08-19T12:00:31;18.27;;;13.90;;
21424;SDS011;10873;51.132;16.848;2022-08-19T12:03:00;15.13;;;12.57;;
21424;SDS011;10873;51.132;16.848;2022-08-19T12:05:27;16.35;;;13.57;;
21424;SDS011;10873;51.132;16.848;2022-08-19T12:07:53;14.13;;;12.63;;
21424;SDS011;10873;51.132;16.848;2022-08-19T12:10:21;18.00;;;13.70;;
21424;SDS011;10873;51.132;16.848;2022-08-19T12:12:47;14.20;;;12.77;;
21424;SDS011;10873;51.132;16.848;2022-08-19T12:15:14;13.65;;;12.23;;
21424;SDS011;10873;51.132;16.848;2022-08-19T12:17:40;15.70;;;13.45;;
21424;SDS011;10873;51.132;16.848;2022-08-19T12:20:07;15.30;;;12.48;;
21424;SDS011;10873;51.132;16.848;2022-08-19T12:22:35;15.23;;;12.48;;
21424;SDS011;10873;51.132;16.848;2022-08-19T12:25:02;14.85;;;11.98;;
21424;SDS011;10873;51.132;16.848;2022-08-19T12:27:32;12.82;;;11.48;;
21424;SDS011;10873;51.132;16.848;2022-08-19T12:29:58;13.52;;;11.98;;
21424;SDS011;10873;51.132;16.848;2022-08-19T12:32:26;13.52;;;11.70;;
21424;SDS011;10873;51.132;16.848;2022-08-19T12:34:52;13.25;;;11.77;;
21424;SDS011;10873;51.132;16.848;2022-08-19T12:37:19;11.70;;;10.60;;
21424;SDS011;10873;51.132;16.848;2022-08-19T12:39:46;15.00;;;11.38;;
21424;SDS011;10873;51.132;16.848;2022-08-19T12:42:13;12.70;;;11.32;;
21424;SDS011;10873;51.132;16.848;2022-08-19T12:44:41;13.50;;;11.52;;
21424;SDS011;10873;51.132;16.848;2022-08-19T12:47:08;12.35;;;10.43;;
21424;SDS011;10873;51.132;16.848;2022-08-19T12:49:36;12.25;;;11.05;;
21424;SDS011;10873;51.132;16.848;2022-08-19T12:52:05;12.95;;;11.05;;
21424;SDS011;10873;51.132;16.848;2022-08-19T12:54:32;15.27;;;10.07;;
21424;SDS011;10873;51.132;16.848;2022-08-19T12:56:59;12.20;;;10.20;;
21424;SDS011;10873;51.132;16.848;2022-08-19T12:59:25;14.15;;;11.13;;
21424;SDS011;10873;51.132;16.848;2022-08-19T13:01:52;13.90;;;9.77;;
21424;SDS011;10873;51.132;16.848;2022-08-19T13:04:19;11.73;;;9.52;;
21424;SDS011;10873;51.132;16.848;2022-08-19T13:06:45;12.25;;;9.65;;
21424;SDS011;10873;51.132;16.848;2022-08-19T13:09:11;12.23;;;9.35;;
21424;SDS011;10873;51.132;16.848;2022-08-19T13:11:37;12.80;;;9.65;;
21424;SDS011;10873;51.132;16.848;2022-08-19T13:14:04;10.75;;;9.43;;
21424;SDS011;10873;51.132;16.848;2022-08-19T13:16:30;10.50;;;9.40;;
21424;SDS011;10873;51.132;16.848;2022-08-19T13:18:58;10.18;;;8.82;;
21424;SDS011;10873;51.132;16.848;2022-08-19T13:21:25;11.93;;;9.52;;
21424;SDS011;10873;51.132;16.848;2022-08-19T13:23:53;15.35;;;9.57;;
21424;SDS011;10873;51.132;16.848;2022-08-19T13:26:19;18.30;;;8.85;;
21424;SDS011;10873;51.132;16.848;2022-08-19T13:28:46;14.23;;;8.82;;
21424;SDS011;10873;51.132;16.848;2022-08-19T13:31:39;12.18;;;9.00;;
21424;SDS011;10873;51.132;16.848;2022-08-19T13:34:28;11.35;;;8.57;;
21424;SDS011;10873;51.132;16.848;2022-08-19T13:36:56;11.98;;;8.50;;
21424;SDS011;10873;51.132;16.848;2022-08-19T13:39:22;13.00;;;8.63;;
21424;SDS011;10873;51.132;16.848;2022-08-19T13:41:49;11.90;;;8.63;;
21424;SDS011;10873;51.132;16.848;2022-08-19T13:44:15;14.45;;;8.38;;
21424;SDS011;10873;51.132;16.848;2022-08-19T13:46:43;15.07;;;9.10;;
21424;SDS011;10873;51.132;16.848;2022-08-19T13:49:10;12.52;;;8.13;;
21424;SDS011;10873;51.132;16.848;2022-08-19T13:51:39;13.55;;;8.23;;
21424;SDS011;10873;51.132;16.848;2022-08-19T13:54:06;13.85;;;8.90;;
21424;SDS011;10873;51.132;16.848;2022-08-19T13:56:32;19.35;;;8.70;;
21424;SDS011;10873;51.132;16.848;2022-08-19T13:58:58;14.02;;;9.05;;
21424;SDS011;10873;51.132;16.848;2022-08-19T14:01:25;17.60;;;8.77;;
21424;SDS011;10873;51.132;16.848;2022-08-19T14:03:51;18.42;;;9.45;;
21424;SDS011;10873;51.132;16.848;2022-08-19T14:06:18;12.00;;;8.13;;
21424;SDS011;10873;51.132;16.848;2022-08-19T14:08:46;17.23;;;8.40;;
21424;SDS011;10873;51.132;16.848;2022-08-19T14:11:12;10.88;;;8.23;;
21424;SDS011;10873;51.132;16.848;2022-08-19T14:13:38;16.55;;;8.48;;
21424;SDS011;10873;51.132;16.848;2022-08-19T14:16:06;13.25;;;8.80;;
21424;SDS011;10873;51.132;16.848;2022-08-19T14:18:33;14.90;;;8.88;;
21424;SDS011;10873;51.132;16.848;2022-08-19T14:20:59;14.90;;;9.05;;
21424;SDS011;10873;51.132;16.848;2022-08-19T14:23:25;14.63;;;8.98;;
21424;SDS011;10873;51.132;16.848;2022-08-19T14:25:53;13.93;;;8.95;;
21424;SDS011;10873;51.132;16.848;2022-08-19T14:28:27;19.17;;;8.52;;
21424;SDS011;10873;51.132;16.848;2022-08-19T14:30:53;16.23;;;8.75;;
21424;SDS011;10873;51.132;16.848;2022-08-19T14:33:19;13.00;;;9.18;;
21424;SDS011;10873;51.132;16.848;2022-08-19T14:35:46;12.15;;;9.05;;
21424;SDS011;10873;51.132;16.848;2022-08-19T14:38:14;17.80;;;9.57;;
21424;SDS011;10873;51.132;16.848;2022-08-19T14:40:42;16.52;;;8.77;;
21424;SDS011;10873;51.132;16.848;2022-08-19T14:43:11;12.27;;;8.50;;
21424;SDS011;10873;51.132;16.848;2022-08-19T14:45:37;15.30;;;9.00;;